createdAt,value
2023-04-26T00:01:39.825Z,7.44
2023-04-26T00:06:41.684Z,7.43
2023-04-26T00:11:43.362Z,7.39
2023-04-26T00:16:45.074Z,7.27
2023-04-26T00:21:47.023Z,7.14
2023-04-26T00:26:48.730Z,7.04
2023-04-26T00:31:50.549Z,6.90
2023-04-26T00:36:52.748Z,6.71
2023-04-26T00:41:54.847Z,6.53
2023-04-26T00:46:56.615Z,6.36
2023-04-26T00:51:59.114Z,6.17
2023-04-26T00:57:00.957Z,6.02
2023-04-26T01:02:03.761Z,5.82
2023-04-26T01:07:05.729Z,5.66
2023-04-26T01:12:09.130Z,5.50
2023-04-26T01:17:10.926Z,5.38
2023-04-26T01:22:14.836Z,5.26
2023-04-26T01:27:17.824Z,5.12
2023-04-26T01:32:19.742Z,5.03
2023-04-26T01:37:21.422Z,4.92
2023-04-26T01:42:23.052Z,4.87
2023-04-26T01:47:26.678Z,4.82
2023-04-26T01:52:28.507Z,4.76
2023-04-26T01:57:30.188Z,4.73
2023-04-26T02:02:32.065Z,4.66
2023-04-26T02:07:33.979Z,4.62
2023-04-26T02:12:35.995Z,4.59
2023-04-26T02:17:38.623Z,4.54
2023-04-26T02:22:40.608Z,4.55
2023-04-26T02:27:42.276Z,4.54
2023-04-26T02:32:43.941Z,4.53
2023-04-26T02:37:49.149Z,4.45
2023-04-26T02:42:51.457Z,4.38
2023-04-26T02:47:53.852Z,4.31
2023-04-26T02:52:56.311Z,4.23
2023-04-26T02:57:58.104Z,4.14
2023-04-26T03:03:00.364Z,4.08
2023-04-26T03:08:02.477Z,3.99
2023-04-26T03:13:05.485Z,3.90
2023-04-26T03:18:07.545Z,3.86
2023-04-26T03:23:09.411Z,3.88
2023-04-26T03:28:11.966Z,3.88
2023-04-26T03:33:14.032Z,3.91
2023-04-26T03:38:16.266Z,3.92
2023-04-26T03:43:18.368Z,3.93
2023-04-26T03:48:20.057Z,4.00
2023-04-26T03:53:21.996Z,4.14
2023-04-26T03:58:26.050Z,4.50
2023-04-26T04:07:13.586Z,5.42
2023-04-26T04:12:15.586Z,6.00
2023-04-26T04:17:19.315Z,6.68
2023-04-26T04:22:21.212Z,7.75
2023-04-26T04:27:22.801Z,8.78
2023-04-26T04:32:24.890Z,9.69
2023-04-26T04:37:28.690Z,10.59
2023-04-26T04:42:30.580Z,11.25
2023-04-26T04:47:34.144Z,11.46
2023-04-26T04:52:36.811Z,11.62
2023-04-26T04:57:40.100Z,11.85
2023-04-26T05:02:43.459Z,12.06
2023-04-26T05:07:45.454Z,12.47
2023-04-26T05:12:48.390Z,12.96
2023-04-26T05:17:51.285Z,11.50
2023-04-26T05:22:56.695Z,10.21
2023-04-26T05:27:58.509Z,9.05
2023-04-26T05:33:23.606Z,8.46
2023-04-26T05:38:43.786Z,8.27
2023-04-26T05:43:47.674Z,8.14
2023-04-26T05:48:49.718Z,8.21
2023-04-26T05:53:52.294Z,8.29
2023-04-26T05:58:54.612Z,8.41
2023-04-26T06:03:59.887Z,8.74
2023-04-26T06:09:05.785Z,8.93
2023-04-26T06:14:14.223Z,9.09
2023-04-26T06:19:21.941Z,9.29
2023-04-26T06:24:25.408Z,9.36
2023-04-26T06:29:27.332Z,9.00
2023-04-26T06:34:29.188Z,8.76
2023-04-26T06:39:30.990Z,8.51
2023-04-26T06:44:33.016Z,8.46
2023-04-26T06:49:37.652Z,8.71
2023-04-26T06:54:45.988Z,9.22
2023-04-26T06:59:55.854Z,9.72
2023-04-26T07:04:57.767Z,9.50
2023-04-26T07:09:59.646Z,9.09
2023-04-26T07:15:01.596Z,8.83
2023-04-26T07:20:04.235Z,8.92
2023-04-26T07:25:06.354Z,9.58
2023-04-26T07:30:14.621Z,10.26
2023-04-26T07:35:16.778Z,10.35
2023-04-26T07:40:18.871Z,9.99
2023-04-26T07:45:21.092Z,9.55
2023-04-26T07:50:24.689Z,9.42
2023-04-26T07:55:27.464Z,9.69
2023-04-26T08:00:29.396Z,9.77
2023-04-26T08:05:31.469Z,10.38
2023-04-26T08:10:33.513Z,10.37
2023-04-26T08:15:35.299Z,9.96
2023-04-26T08:20:37.043Z,10.06
2023-04-26T08:25:38.892Z,10.37
2023-04-26T08:30:41.011Z,10.52
2023-04-26T08:35:42.736Z,10.03
2023-04-26T08:40:46.875Z,9.48
2023-04-26T08:45:49.221Z,9.24
2023-04-26T08:50:52.413Z,9.19
2023-04-26T08:55:54.916Z,9.27
2023-04-26T09:00:57.755Z,9.27
2023-04-26T09:06:03.184Z,9.56
2023-04-26T09:11:06.173Z,10.26
2023-04-26T09:16:07.975Z,10.06
2023-04-26T09:21:09.999Z,9.19
2023-04-26T09:26:19.020Z,8.88
2023-04-26T09:31:41.835Z,8.84
2023-04-26T09:36:57.728Z,9.90
2023-04-26T09:42:00.107Z,10.22
2023-04-26T09:47:10.265Z,9.39
2023-04-26T09:52:12.460Z,9.75
2023-04-26T09:57:17.280Z,10.96
2023-04-26T10:02:22.494Z,11.61
2023-04-26T10:07:26.001Z,12.02
2023-04-26T10:12:28.732Z,11.53
2023-04-26T10:17:32.350Z,11.09
2023-04-26T10:22:40.622Z,10.43
2023-04-26T10:27:45.308Z,10.59
2023-04-26T10:32:56.396Z,11.05
2023-04-26T10:38:01.208Z,10.88
2023-04-26T10:43:08.949Z,10.72
2023-04-26T10:48:19.858Z,10.86
2023-04-26T10:53:21.751Z,11.51
2023-04-26T10:58:35.744Z,12.25
2023-04-26T11:03:38.698Z,12.08
2023-04-26T11:08:40.816Z,11.10
2023-04-26T11:13:44.070Z,10.81
2023-04-26T11:18:47.676Z,10.98
2023-04-26T11:23:53.905Z,11.58
2023-04-26T11:28:55.636Z,12.34
2023-04-26T11:34:04.812Z,12.93
2023-04-26T11:39:07.172Z,13.43
2023-04-26T11:44:11.584Z,13.07
2023-04-26T11:49:13.729Z,12.21
2023-04-26T11:54:30.462Z,11.44
2023-04-26T11:59:32.294Z,11.22
2023-04-26T12:04:34.637Z,11.93
2023-04-26T12:09:41.494Z,12.80
2023-04-26T12:14:43.252Z,12.88
2023-04-26T12:19:49.809Z,13.01
2023-04-26T12:25:05.432Z,13.15
2023-04-26T12:30:08.522Z,13.40
2023-04-26T12:35:10.543Z,13.31
2023-04-26T12:40:14.435Z,12.65
2023-04-26T12:45:18.668Z,12.07
2023-04-26T12:50:21.237Z,11.84
2023-04-26T12:55:23.268Z,11.69
2023-04-26T13:00:25.956Z,11.96
2023-04-26T13:05:29.617Z,12.24
2023-04-26T13:10:33.002Z,12.18
2023-04-26T13:15:34.812Z,11.91
2023-04-26T13:20:36.978Z,12.38
2023-04-26T13:25:38.731Z,12.87
2023-04-26T13:30:40.587Z,12.45
2023-04-26T13:35:42.326Z,11.86
2023-04-26T13:40:44.181Z,11.89
2023-04-26T13:45:46.158Z,11.66
2023-04-26T13:50:48.041Z,11.87
2023-04-26T13:55:49.907Z,12.62
2023-04-26T14:00:52.404Z,13.15
2023-04-26T14:05:55.164Z,13.63
2023-04-26T14:10:56.901Z,13.43
2023-04-26T14:15:58.649Z,13.41
2023-04-26T14:21:00.904Z,13.72
2023-04-26T14:26:02.828Z,13.86
2023-04-26T14:31:05.109Z,13.60
2023-04-26T14:36:07.279Z,12.44
2023-04-26T14:41:13.609Z,11.75
2023-04-26T14:46:15.427Z,11.65
2023-04-26T14:51:17.947Z,11.67
2023-04-26T14:56:19.669Z,11.77
2023-04-26T15:01:21.921Z,11.85
2023-04-26T15:06:23.987Z,12.36
2023-04-26T15:11:25.925Z,12.13
2023-04-26T15:16:27.778Z,11.66
2023-04-26T15:21:29.995Z,11.28
2023-04-26T15:26:32.866Z,11.06
2023-04-26T15:31:34.708Z,11.12
2023-04-26T15:36:36.792Z,11.90
2023-04-26T15:41:39.040Z,12.51
2023-04-26T15:46:40.902Z,12.02
2023-04-26T15:51:42.776Z,11.56
2023-04-26T15:56:46.713Z,11.11
2023-04-26T16:01:48.520Z,10.96
2023-04-26T16:06:50.387Z,11.42
2023-04-26T16:11:52.369Z,11.76
2023-04-26T16:16:54.052Z,11.54
2023-04-26T16:21:56.410Z,11.11
2023-04-26T16:26:58.113Z,10.73
2023-04-26T16:32:00.302Z,10.48
2023-04-26T16:37:02.428Z,10.34
2023-04-26T16:42:04.796Z,10.22
2023-04-26T16:47:06.826Z,10.46
2023-04-26T16:52:09.078Z,10.67
2023-04-26T16:57:11.171Z,10.58
2023-04-26T17:02:13.925Z,11.19
2023-04-26T17:07:16.496Z,11.47
2023-04-26T17:12:18.187Z,11.00
2023-04-26T17:17:19.855Z,10.46
2023-04-26T17:22:21.525Z,10.00
2023-04-26T17:27:26.204Z,9.69
2023-04-26T17:32:28.042Z,9.50
2023-04-26T17:37:29.819Z,9.52
2023-04-26T17:42:32.544Z,9.49
2023-04-26T17:47:34.251Z,9.09
2023-04-26T17:52:37.089Z,8.61
2023-04-26T17:57:39.170Z,8.21
2023-04-26T18:02:41.094Z,7.90
2023-04-26T18:07:42.983Z,7.62
2023-04-26T18:12:44.684Z,7.37
2023-04-26T18:17:46.856Z,7.18
2023-04-26T18:22:48.599Z,7.10
2023-04-26T18:27:50.454Z,7.22
2023-04-26T18:32:53.214Z,7.19
2023-04-26T18:37:56.453Z,7.08
2023-04-26T18:42:58.915Z,6.91
2023-04-26T18:48:00.792Z,6.82
2023-04-26T18:53:02.979Z,6.81
2023-04-26T18:58:04.733Z,6.77
2023-04-26T19:03:06.716Z,6.70
2023-04-26T19:08:09.529Z,6.67
2023-04-26T19:13:11.720Z,6.60
2023-04-26T19:18:13.934Z,6.58
2023-04-26T19:23:15.817Z,6.57
2023-04-26T19:28:17.665Z,6.68
2023-04-26T19:33:19.462Z,6.63
2023-04-26T19:38:21.213Z,6.49
2023-04-26T19:43:22.901Z,6.44
2023-04-26T19:48:24.520Z,6.40
2023-04-26T19:53:26.158Z,6.36
2023-04-26T19:58:27.768Z,6.31
2023-04-26T20:03:29.691Z,6.21
2023-04-26T20:08:31.823Z,6.11
2023-04-26T20:13:33.924Z,6.10
2023-04-26T20:18:36.493Z,6.02
2023-04-26T20:23:38.275Z,5.81
2023-04-26T20:28:40.204Z,5.69
2023-04-26T20:33:42.368Z,5.64
2023-04-26T20:38:44.255Z,5.52
2023-04-26T20:43:45.994Z,5.39
2023-04-26T20:48:47.801Z,5.21
2023-04-26T20:53:49.564Z,5.15
2023-04-26T20:58:51.270Z,5.09
2023-04-26T21:03:53.343Z,5.03
2023-04-26T21:08:56.258Z,5.01
2023-04-26T21:14:04.334Z,4.96
2023-04-26T21:19:06.383Z,4.94
2023-04-26T21:24:08.683Z,4.90
2023-04-26T21:29:12.333Z,4.81
2023-04-26T21:34:14.358Z,4.69
2023-04-26T21:39:16.812Z,4.55
2023-04-26T21:44:19.419Z,4.54
2023-04-26T21:49:22.947Z,4.59
2023-04-26T21:54:24.602Z,4.69
2023-04-26T21:59:26.225Z,4.82
2023-04-26T22:04:28.307Z,4.97
2023-04-26T22:09:30.064Z,5.14
2023-04-26T22:14:32.193Z,5.30
2023-04-26T22:19:33.965Z,5.45
2023-04-26T22:24:35.826Z,5.63
2023-04-26T22:29:37.552Z,5.79
2023-04-26T22:34:41.619Z,5.89
2023-04-26T22:39:44.972Z,5.98
2023-04-26T22:44:47.053Z,6.03
2023-04-26T22:49:49.755Z,6.10
2023-04-26T22:54:51.534Z,6.10
2023-04-26T22:59:53.189Z,6.10
2023-04-26T23:04:54.850Z,6.06
2023-04-26T23:09:57.488Z,6.06
2023-04-26T23:15:05.102Z,6.03
2023-04-26T23:20:12.362Z,5.98
2023-04-26T23:25:14.190Z,5.94
2023-04-26T23:30:15.997Z,5.91
2023-04-26T23:35:18.022Z,5.83
2023-04-26T23:40:20.595Z,5.68
2023-04-26T23:45:23.812Z,5.48
2023-04-26T23:50:27.554Z,5.38
2023-04-26T23:55:29.152Z,5.34
